Time;durP1;ratioP1;P1;durP2;ratioP2;P2;SDS_P1;SDS_P2;PMS_P1;PMS_P2;Temp;Humidity;BMP_temperature;BMP_pressure;BME280_temperature;BME280_humidity;BME280_pressure;Samples;Min_cycle;Max_cycle;Signal;HPM_P1;HPM_P2
2023/01/15 00:00:50;;;;;;;2.53;1.02;;;;;;;;;;5013081;28;20495;-79
2023/01/15 00:03:15;;;;;;;1.25;0.70;;;;;;;;;;5014431;28;20442;-80
2023/01/15 00:05:41;;;;;;;3.22;0.75;;;;;;;;;;5013230;28;20084;-79
2023/01/15 00:08:06;;;;;;;0.88;0.57;;;;;;;;;;5015136;28;20021;-81
2023/01/15 00:10:32;;;;;;;2.30;0.90;;;;;;;;;;5012817;28;20378;-81
2023/01/15 00:12:57;;;;;;;1.93;0.77;;;;;;;;;;5012376;28;20413;-80
2023/01/15 00:15:23;;;;;;;1.00;0.70;;;;;;;;;;5014290;28;20501;-80
2023/01/15 00:17:48;;;;;;;2.08;1.02;;;;;;;;;;5014196;28;20026;-79
2023/01/15 00:20:14;;;;;;;2.75;1.10;;;;;;;;;;5012368;28;20033;-79
2023/01/15 00:22:39;;;;;;;2.78;1.05;;;;;;;;;;5011593;28;20452;-78
2023/01/15 00:27:50;;;;;;;1.30;0.60;;;;;;;;;;5013201;28;20053;-80
2023/01/15 00:30:16;;;;;;;2.50;0.70;;;;;;;;;;5011378;28;20025;-79
2023/01/15 00:32:43;;;;;;;1.00;0.65;;;;;;;;;;5011521;28;20022;-79
2023/01/15 00:35:29;;;;;;;5.32;1.08;;;;;;;;;;5011977;28;20061;-79
2023/01/15 00:37:54;;;;;;;0.70;0.70;;;;;;;;;;5019299;28;20389;-79
2023/01/15 00:40:20;;;;;;;1.00;0.70;;;;;;;;;;5030860;28;20033;-79
2023/01/15 00:42:45;;;;;;;1.35;0.80;;;;;;;;;;5030009;28;20381;-79
2023/01/15 00:45:11;;;;;;;1.27;0.88;;;;;;;;;;5030753;28;20045;-79
2023/01/15 00:47:43;;;;;;;1.38;1.00;;;;;;;;;;5030805;28;20017;-79
2023/01/15 00:50:14;;;;;;;1.38;0.50;;;;;;;;;;5032068;28;20029;-79
2023/01/15 00:52:40;;;;;;;0.93;0.40;;;;;;;;;;5030296;28;20099;-79
2023/01/15 00:55:06;;;;;;;2.63;0.77;;;;;;;;;;5030748;28;20251;-79
2023/01/15 00:57:32;;;;;;;1.95;0.70;;;;;;;;;;5030518;28;20040;-79
2023/01/15 00:59:58;;;;;;;2.70;0.80;;;;;;;;;;5030300;28;20025;-79
2023/01/15 01:02:23;;;;;;;1.23;0.70;;;;;;;;;;5030471;28;20021;-79
2023/01/15 01:04:49;;;;;;;1.23;0.50;;;;;;;;;;5032467;28;20458;-81
2023/01/15 01:07:15;;;;;;;2.42;1.58;;;;;;;;;;5033424;28;20370;-80
2023/01/15 01:09:40;;;;;;;0.90;0.70;;;;;;;;;;5031667;28;20052;-79
2023/01/15 01:12:07;;;;;;;1.05;0.57;;;;;;;;;;5032695;28;20030;-80
2023/01/15 01:14:32;;;;;;;1.25;0.80;;;;;;;;;;5032465;28;20037;-81
2023/01/15 01:16:58;;;;;;;1.77;0.77;;;;;;;;;;5032758;28;20033;-80
2023/01/15 01:19:25;;;;;;;2.08;0.60;;;;;;;;;;5031459;28;20033;-80
2023/01/15 01:21:51;;;;;;;1.20;0.70;;;;;;;;;;5032688;28;20060;-79
2023/01/15 01:24:20;;;;;;;2.13;0.70;;;;;;;;;;5031559;28;20025;-81
2023/01/15 01:26:47;;;;;;;0.68;0.60;;;;;;;;;;5031122;28;20028;-80
2023/01/15 01:29:19;;;;;;;3.85;0.75;;;;;;;;;;5031830;28;20082;-81
2023/01/15 01:31:47;;;;;;;1.80;0.90;;;;;;;;;;5032327;28;20385;-81
2023/01/15 01:34:13;;;;;;;1.20;0.50;;;;;;;;;;5030277;28;20057;-79
2023/01/15 01:36:41;;;;;;;0.80;0.52;;;;;;;;;;5029977;28;20120;-79
2023/01/15 01:39:12;;;;;;;2.08;0.70;;;;;;;;;;5030433;28;20026;-80
2023/01/15 01:41:38;;;;;;;1.42;0.80;;;;;;;;;;5030467;28;20098;-80
2023/01/15 01:44:23;;;;;;;1.15;0.60;;;;;;;;;;5029575;28;20144;-79
2023/01/15 01:46:49;;;;;;;1.77;0.63;;;;;;;;;;5029709;28;20031;-79
2023/01/15 01:49:14;;;;;;;1.25;0.70;;;;;;;;;;5031219;28;20022;-80
2023/01/15 01:51:44;;;;;;;1.20;0.90;;;;;;;;;;5029759;28;20091;-79
2023/01/15 01:54:15;;;;;;;1.75;0.77;;;;;;;;;;5030208;28;20057;-80
2023/01/15 01:56:41;;;;;;;2.00;0.95;;;;;;;;;;5029840;28;20018;-79
2023/01/15 01:59:07;;;;;;;2.28;0.93;;;;;;;;;;5030961;28;20044;-80
2023/01/15 02:01:33;;;;;;;1.50;0.80;;;;;;;;;;5030673;28;20452;-79
2023/01/15 02:03:59;;;;;;;2.15;0.60;;;;;;;;;;5031045;28;20339;-80
2023/01/15 02:06:27;;;;;;;1.55;0.80;;;;;;;;;;5028906;28;20082;-79
2023/01/15 02:08:53;;;;;;;1.13;0.47;;;;;;;;;;5030524;28;20022;-79
2023/01/15 02:11:21;;;;;;;1.55;1.05;;;;;;;;;;5030498;28;20033;-79
2023/01/15 02:14:23;;;;;;;6.82;0.60;;;;;;;;;;5030095;28;20033;-79
2023/01/15 02:16:58;;;;;;;1.63;0.70;;;;;;;;;;5029005;28;20033;-79
2023/01/15 02:19:29;;;;;;;1.17;0.43;;;;;;;;;;5029259;28;20036;-79
2023/01/15 02:22:10;;;;;;;0.88;0.40;;;;;;;;;;5030483;28;20040;-79
2023/01/15 02:24:44;;;;;;;0.77;0.40;;;;;;;;;;5029321;28;20646;-78
2023/01/15 02:27:17;;;;;;;1.20;0.45;;;;;;;;;;5029126;28;20468;-79
2023/01/15 02:29:49;;;;;;;0.65;0.43;;;;;;;;;;5030585;28;20482;-79
2023/01/15 02:32:22;;;;;;;0.50;0.50;;;;;;;;;;5029254;28;20124;-78
2023/01/15 02:34:53;;;;;;;0.30;0.30;;;;;;;;;;5029283;28;20025;-79
2023/01/15 02:37:26;;;;;;;0.85;0.35;;;;;;;;;;5030626;28;20114;-79
2023/01/15 02:39:55;;;;;;;0.57;0.40;;;;;;;;;;5031389;28;20083;-80
2023/01/15 02:42:24;;;;;;;0.50;0.50;;;;;;;;;;5029198;28;20632;-80
2023/01/15 02:44:52;;;;;;;0.95;0.57;;;;;;;;;;5028857;28;20409;-79
2023/01/15 02:47:22;;;;;;;1.13;0.63;;;;;;;;;;5028938;28;20028;-79
2023/01/15 02:49:50;;;;;;;0.40;0.40;;;;;;;;;;5030135;28;20026;-78
2023/01/15 02:52:27;;;;;;;0.40;0.40;;;;;;;;;;5027985;28;20025;-79
2023/01/15 02:55:02;;;;;;;0.88;0.40;;;;;;;;;;5028564;28;20025;-79
2023/01/15 02:57:31;;;;;;;0.88;0.40;;;;;;;;;;5028436;28;20028;-79
2023/01/15 03:00:00;;;;;;;2.00;0.50;;;;;;;;;;5030527;28;20165;-80
2023/01/15 03:02:36;;;;;;;1.08;0.40;;;;;;;;;;5029750;28;20036;-79
2023/01/15 03:05:11;;;;;;;1.23;0.60;;;;;;;;;;5032955;28;20033;-80
2023/01/15 03:07:43;;;;;;;2.22;0.43;;;;;;;;;;5035751;28;20021;-79
2023/01/15 03:10:10;;;;;;;0.55;0.30;;;;;;;;;;5042420;28;20028;-78
2023/01/15 03:13:03;;;;;;;2.55;0.45;;;;;;;;;;5040550;28;20033;-78
2023/01/15 03:19:00;;;;;;;0.82;0.52;;;;;;;;;;5034154;28;20074;-79
2023/01/15 03:21:52;;;;;;;1.25;0.75;;;;;;;;;;5034917;28;20036;-79
2023/01/15 03:24:24;;;;;;;1.02;0.30;;;;;;;;;;5016660;28;20041;-79
2023/01/15 03:26:51;;;;;;;1.48;0.60;;;;;;;;;;5036534;28;20029;-79
2023/01/15 03:29:18;;;;;;;0.50;0.50;;;;;;;;;;5035209;28;20456;-79
2023/01/15 03:31:43;;;;;;;0.90;0.50;;;;;;;;;;5036358;28;20497;-80
2023/01/15 03:34:10;;;;;;;1.00;0.50;;;;;;;;;;5035045;28;20026;-79
2023/01/15 03:36:36;;;;;;;2.05;0.50;;;;;;;;;;5035155;28;20060;-79
2023/01/15 03:39:03;;;;;;;1.05;0.60;;;;;;;;;;5035421;28;20026;-79
2023/01/15 03:41:48;;;;;;;1.77;0.45;;;;;;;;;;5035128;28;20149;-79
2023/01/15 03:45:04;;;;;;;0.70;0.40;;;;;;;;;;5036341;28;20049;-80
2023/01/15 03:47:34;;;;;;;0.85;0.70;;;;;;;;;;5018511;28;20041;-80
2023/01/15 03:50:19;;;;;;;2.75;0.52;;;;;;;;;;5034973;28;20013;-80
2023/01/15 03:53:05;;;;;;;0.93;0.50;;;;;;;;;;5034875;28;20055;-79
2023/01/15 03:55:53;;;;;;;1.58;0.70;;;;;;;;;;5018741;28;20045;-79
2023/01/15 03:58:32;;;;;;;5.22;1.02;;;;;;;;;;5034985;28;20111;-79
2023/01/15 04:01:00;;;;;;;0.30;0.30;;;;;;;;;;5036392;28;20049;-79
2023/01/15 04:03:29;;;;;;;1.77;0.73;;;;;;;;;;5036283;28;20048;-79
2023/01/15 04:05:57;;;;;;;1.20;0.80;;;;;;;;;;5035996;28;20108;-79
2023/01/15 04:08:27;;;;;;;1.88;0.50;;;;;;;;;;5036024;28;20458;-79
2023/01/15 04:10:58;;;;;;;0.40;0.32;;;;;;;;;;5034363;28;20528;-79
2023/01/15 04:13:24;;;;;;;1.38;0.38;;;;;;;;;;5037059;28;20108;-79
2023/01/15 04:15:50;;;;;;;0.47;0.30;;;;;;;;;;5034757;28;20477;-80
2023/01/15 04:18:16;;;;;;;0.52;0.40;;;;;;;;;;5036363;28;20080;-79
2023/01/15 04:20:41;;;;;;;1.30;0.40;;;;;;;;;;5048636;28;20354;-79
2023/01/15 04:23:07;;;;;;;1.48;0.80;;;;;;;;;;5031260;28;20029;-79
2023/01/15 04:25:33;;;;;;;0.65;0.30;;;;;;;;;;5031478;28;20036;-79
2023/01/15 04:27:59;;;;;;;1.50;0.40;;;;;;;;;;5031012;28;20425;-78
2023/01/15 04:30:24;;;;;;;0.75;0.40;;;;;;;;;;5032930;28;20033;-79
2023/01/15 04:32:51;;;;;;;0.20;0.20;;;;;;;;;;5030916;28;20458;-79
2023/01/15 04:35:17;;;;;;;0.38;0.38;;;;;;;;;;5030989;28;20025;-79
2023/01/15 04:37:43;;;;;;;0.70;0.40;;;;;;;;;;5031294;28;20022;-79
2023/01/15 04:44:05;;;;;;;0.90;0.40;;;;;;;;;;5031198;28;20036;-79
2023/01/15 04:45:39;;;;;;;0.30;0.30;;;;;;;;;;5032881;28;20067;-79
2023/01/15 04:48:04;;;;;;;1.48;0.30;;;;;;;;;;5032309;28;20529;-79
2023/01/15 04:50:30;;;;;;;1.08;0.40;;;;;;;;;;5030982;28;20484;-79
2023/01/15 04:52:55;;;;;;;0.35;0.32;;;;;;;;;;5031904;28;20116;-79
2023/01/15 04:55:21;;;;;;;0.73;0.40;;;;;;;;;;5032228;28;20037;-79
2023/01/15 04:57:49;;;;;;;0.63;0.20;;;;;;;;;;5030881;28;20029;-79
2023/01/15 05:00:15;;;;;;;1.00;0.25;;;;;;;;;;5032373;28;20030;-79
2023/01/15 05:02:40;;;;;;;0.30;0.30;;;;;;;;;;5031898;28;20107;-79
2023/01/15 05:05:06;;;;;;;0.38;0.20;;;;;;;;;;5030590;28;20040;-80
2023/01/15 05:07:33;;;;;;;0.20;0.20;;;;;;;;;;5032499;28;20051;-79
2023/01/15 05:09:58;;;;;;;0.40;0.30;;;;;;;;;;5032799;28;20025;-79
2023/01/15 05:12:25;;;;;;;0.35;0.30;;;;;;;;;;5032511;28;20030;-80
2023/01/15 05:14:50;;;;;;;1.02;0.40;;;;;;;;;;5031413;28;20037;-79
2023/01/15 05:17:16;;;;;;;2.75;0.47;;;;;;;;;;5032389;28;20548;-80
2023/01/15 05:19:41;;;;;;;0.65;0.30;;;;;;;;;;5031593;28;20036;-79
2023/01/15 05:22:07;;;;;;;0.40;0.30;;;;;;;;;;5031463;28;20035;-79
2023/01/15 05:24:32;;;;;;;0.60;0.40;;;;;;;;;;5031765;28;20063;-79
2023/01/15 05:26:58;;;;;;;0.50;0.40;;;;;;;;;;5031126;28;20485;-78
2023/01/15 05:29:23;;;;;;;1.23;0.43;;;;;;;;;;5030285;28;20091;-79
2023/01/15 05:31:49;;;;;;;0.20;0.20;;;;;;;;;;5030715;28;20033;-79
2023/01/15 05:34:14;;;;;;;0.60;0.50;;;;;;;;;;5030209;28;20097;-78
2023/01/15 05:36:40;;;;;;;0.68;0.25;;;;;;;;;;5030264;28;20055;-79
2023/01/15 05:39:06;;;;;;;0.45;0.30;;;;;;;;;;5012993;28;20025;-79
2023/01/15 05:41:50;;;;;;;0.65;0.22;;;;;;;;;;5011854;28;20032;-78
2023/01/15 05:44:25;;;;;;;1.38;0.43;;;;;;;;;;5010820;28;20058;-79
2023/01/15 05:46:53;;;;;;;1.23;1.08;;;;;;;;;;5011179;28;20034;-80
2023/01/15 05:49:21;;;;;;;0.30;0.28;;;;;;;;;;5010256;28;20084;-79
2023/01/15 05:51:47;;;;;;;0.40;0.32;;;;;;;;;;5010373;28;20117;-79
2023/01/15 05:54:15;;;;;;;1.10;0.70;;;;;;;;;;5023399;28;20108;-80
2023/01/15 05:56:41;;;;;;;0.30;0.30;;;;;;;;;;5029630;28;20060;-80
2023/01/15 05:59:09;;;;;;;0.57;0.40;;;;;;;;;;5030253;28;20040;-79
2023/01/15 06:01:35;;;;;;;0.60;0.40;;;;;;;;;;5030052;28;20083;-79
2023/01/15 06:04:02;;;;;;;0.68;0.15;;;;;;;;;;5031209;28;20096;-80
2023/01/15 06:06:28;;;;;;;3.85;0.43;;;;;;;;;;5031001;28;20072;-79
2023/01/15 06:08:55;;;;;;;0.55;0.30;;;;;;;;;;5029112;28;20025;-80
2023/01/15 06:11:20;;;;;;;0.28;0.20;;;;;;;;;;5029312;28;20029;-80
2023/01/15 06:13:46;;;;;;;0.95;0.30;;;;;;;;;;5028873;28;20029;-79
2023/01/15 06:16:11;;;;;;;1.60;0.28;;;;;;;;;;5028710;28;20017;-80
2023/01/15 06:18:38;;;;;;;0.52;0.52;;;;;;;;;;5030009;28;20383;-80
2023/01/15 06:21:05;;;;;;;0.40;0.30;;;;;;;;;;5028630;28;20036;-79
2023/01/15 06:23:32;;;;;;;0.30;0.20;;;;;;;;;;5029015;28;20037;-79
2023/01/15 06:26:01;;;;;;;1.50;1.40;;;;;;;;;;5030324;28;20495;-78
2023/01/15 06:28:27;;;;;;;0.38;0.38;;;;;;;;;;5029161;28;20121;-79
2023/01/15 06:30:53;;;;;;;1.27;0.30;;;;;;;;;;5031044;28;20053;-79
2023/01/15 06:33:18;;;;;;;0.82;0.40;;;;;;;;;;5030254;28;20084;-78
2023/01/15 06:35:44;;;;;;;1.75;0.30;;;;;;;;;;5029707;28;20108;-78
2023/01/15 06:38:09;;;;;;;0.20;0.20;;;;;;;;;;5029178;28;20032;-79
2023/01/15 06:40:35;;;;;;;0.45;0.25;;;;;;;;;;5030368;28;20041;-79
2023/01/15 06:48:29;;;;;;;0.90;0.20;;;;;;;;;;5030693;28;20373;-80
2023/01/15 06:50:55;;;;;;;0.55;0.32;;;;;;;;;;5029314;28;20033;-80
2023/01/15 06:53:20;;;;;;;0.30;0.30;;;;;;;;;;5029243;28;20122;-80
2023/01/15 06:55:46;;;;;;;0.38;0.30;;;;;;;;;;5031109;28;20033;-80
2023/01/15 06:58:12;;;;;;;0.20;0.20;;;;;;;;;;5030535;28;20025;-78
2023/01/15 07:00:38;;;;;;;1.42;0.30;;;;;;;;;;5029112;28;20021;-79
2023/01/15 07:03:04;;;;;;;0.30;0.28;;;;;;;;;;5028287;28;20565;-78
2023/01/15 07:05:30;;;;;;;0.45;0.30;;;;;;;;;;5029907;28;20056;-80
2023/01/15 07:07:56;;;;;;;0.13;0.13;;;;;;;;;;5029001;28;20102;-78
2023/01/15 07:10:22;;;;;;;3.25;0.35;;;;;;;;;;5030499;28;20052;-78
2023/01/15 07:12:47;;;;;;;2.45;1.25;;;;;;;;;;5031314;28;20061;-79
2023/01/15 07:15:13;;;;;;;0.50;0.50;;;;;;;;;;5028611;28;20448;-80
2023/01/15 07:17:38;;;;;;;1.10;0.30;;;;;;;;;;5030146;28;20047;-80
2023/01/15 07:20:05;;;;;;;1.08;0.25;;;;;;;;;;5028609;28;20030;-78
2023/01/15 07:22:31;;;;;;;0.70;0.40;;;;;;;;;;5030121;28;20040;-80
2023/01/15 07:24:57;;;;;;;0.77;0.40;;;;;;;;;;5030644;28;20104;-80
2023/01/15 07:27:22;;;;;;;0.30;0.20;;;;;;;;;;5030348;28;20476;-80
2023/01/15 07:29:49;;;;;;;0.20;0.20;;;;;;;;;;5031258;28;20478;-80
2023/01/15 07:32:15;;;;;;;5.32;2.33;;;;;;;;;;5031624;28;20481;-80
2023/01/15 07:34:40;;;;;;;0.22;0.20;;;;;;;;;;5028872;28;20064;-81
2023/01/15 07:37:06;;;;;;;0.82;0.80;;;;;;;;;;5028592;28;20033;-79
2023/01/15 07:39:32;;;;;;;0.30;0.30;;;;;;;;;;5030300;28;20054;-80
2023/01/15 07:50:22;;;;;;;1.17;0.50;;;;;;;;;;5029961;28;20488;-80
2023/01/15 07:52:50;;;;;;;3.13;0.82;;;;;;;;;;5033442;28;20473;-80
2023/01/15 07:55:15;;;;;;;0.40;0.32;;;;;;;;;;5031469;28;20041;-81
2023/01/15 07:57:42;;;;;;;0.60;0.55;;;;;;;;;;5033482;28;20018;-80
2023/01/15 08:00:11;;;;;;;1.45;0.35;;;;;;;;;;5032887;28;20030;-78
2023/01/15 08:02:37;;;;;;;0.63;0.45;;;;;;;;;;5031198;28;20029;-78
2023/01/15 08:05:02;;;;;;;0.65;0.40;;;;;;;;;;5032862;28;20435;-80
2023/01/15 08:07:28;;;;;;;2.55;0.47;;;;;;;;;;5031579;28;20029;-80
2023/01/15 08:09:53;;;;;;;1.35;0.40;;;;;;;;;;5032780;28;20021;-78
2023/01/15 08:15:11;;;;;;;0.95;0.60;;;;;;;;;;5034078;28;20500;-79
2023/01/15 08:17:40;;;;;;;0.47;0.47;;;;;;;;;;5016423;28;20065;-80
2023/01/15 08:20:10;;;;;;;2.83;0.70;;;;;;;;;;5032413;28;20080;-78
2023/01/15 08:22:37;;;;;;;0.52;0.52;;;;;;;;;;5031228;28;20025;-79
2023/01/15 08:25:03;;;;;;;2.67;0.70;;;;;;;;;;5031964;28;20057;-79
2023/01/15 08:27:29;;;;;;;0.50;0.50;;;;;;;;;;5032571;28;20456;-80
2023/01/15 08:29:55;;;;;;;2.65;0.52;;;;;;;;;;5033240;28;20045;-80
2023/01/15 08:32:22;;;;;;;2.08;0.70;;;;;;;;;;5034303;28;20053;-79
2023/01/15 08:34:47;;;;;;;2.00;0.80;;;;;;;;;;5030881;28;20483;-80
2023/01/15 08:37:13;;;;;;;1.25;0.60;;;;;;;;;;5029212;28;20029;-80
2023/01/15 08:39:38;;;;;;;0.50;0.40;;;;;;;;;;5011145;28;20053;-80
2023/01/15 08:42:04;;;;;;;1.70;0.60;;;;;;;;;;5012607;28;20025;-78
2023/01/15 08:44:29;;;;;;;1.13;0.47;;;;;;;;;;5012597;28;20096;-80
2023/01/15 08:46:55;;;;;;;0.73;0.63;;;;;;;;;;5011877;28;20351;-79
2023/01/15 08:49:20;;;;;;;6.60;1.83;;;;;;;;;;5014135;28;20022;-80
2023/01/15 08:51:50;;;;;;;3.58;1.60;;;;;;;;;;5013064;28;20504;-78
2023/01/15 08:54:17;;;;;;;1.02;0.40;;;;;;;;;;5013062;28;20032;-78
2023/01/15 08:56:43;;;;;;;1.73;0.73;;;;;;;;;;4995397;28;20037;-79
2023/01/15 08:59:09;;;;;;;1.13;0.50;;;;;;;;;;5011667;28;20413;-79
2023/01/15 09:01:35;;;;;;;2.10;0.77;;;;;;;;;;5011237;28;20033;-80
2023/01/15 09:04:01;;;;;;;3.05;1.17;;;;;;;;;;5012211;28;20121;-80
2023/01/15 09:06:27;;;;;;;1.27;0.68;;;;;;;;;;5011045;28;20646;-79
2023/01/15 09:08:52;;;;;;;1.02;0.80;;;;;;;;;;5011608;28;20030;-80
2023/01/15 09:11:18;;;;;;;2.33;0.77;;;;;;;;;;5010950;28;20033;-80
2023/01/15 09:13:45;;;;;;;3.22;0.70;;;;;;;;;;5012476;28;20045;-80
2023/01/15 09:16:11;;;;;;;1.17;0.50;;;;;;;;;;5011746;28;20087;-80
2023/01/15 09:18:38;;;;;;;1.65;0.82;;;;;;;;;;5012556;28;20034;-80
2023/01/15 09:21:05;;;;;;;0.93;0.55;;;;;;;;;;5011446;28;20029;-80
2023/01/15 09:23:31;;;;;;;1.88;0.75;;;;;;;;;;5012134;28;20091;-81
2023/01/15 09:26:04;;;;;;;3.38;0.82;;;;;;;;;;5010843;28;20061;-80
2023/01/15 09:28:30;;;;;;;2.05;0.50;;;;;;;;;;5012318;28;20460;-80
2023/01/15 09:30:56;;;;;;;2.05;0.77;;;;;;;;;;5010284;28;20128;-79
2023/01/15 09:33:21;;;;;;;2.47;0.80;;;;;;;;;;5011431;28;20068;-79
2023/01/15 09:35:47;;;;;;;2.05;0.90;;;;;;;;;;5011296;28;20038;-80
2023/01/15 09:38:14;;;;;;;1.52;0.70;;;;;;;;;;5019130;28;20063;-79
2023/01/15 09:40:58;;;;;;;1.15;0.77;;;;;;;;;;5031155;28;20375;-80
2023/01/15 09:43:33;;;;;;;3.90;1.45;;;;;;;;;;5029224;28;20494;-82
2023/01/15 09:46:19;;;;;;;1.30;1.20;;;;;;;;;;5029807;28;20496;-80
2023/01/15 09:49:03;;;;;;;2.78;0.95;;;;;;;;;;5030012;28;20465;-80
2023/01/15 09:51:53;;;;;;;0.95;0.80;;;;;;;;;;5029813;28;20033;-80
2023/01/15 09:54:39;;;;;;;0.98;0.70;;;;;;;;;;5029581;28;20029;-80
2023/01/15 09:57:12;;;;;;;4.35;1.30;;;;;;;;;;5028962;28;20064;-79
2023/01/15 09:59:42;;;;;;;1.15;0.80;;;;;;;;;;5029684;28;20143;-80
2023/01/15 10:02:29;;;;;;;2.10;0.80;;;;;;;;;;5029102;28;20033;-79
2023/01/15 10:05:34;;;;;;;3.45;1.42;;;;;;;;;;5029484;28;20036;-80
2023/01/15 10:08:22;;;;;;;0.77;0.68;;;;;;;;;;5029049;28;20048;-79
2023/01/15 10:10:53;;;;;;;4.05;1.08;;;;;;;;;;5031881;28;20041;-81
2023/01/15 10:13:40;;;;;;;0.50;0.50;;;;;;;;;;5030301;28;20184;-78
2023/01/15 10:16:08;;;;;;;3.63;1.00;;;;;;;;;;5030273;28;20033;-79
2023/01/15 10:18:34;;;;;;;1.10;0.70;;;;;;;;;;5028427;28;20176;-80
2023/01/15 10:21:29;;;;;;;3.17;0.90;;;;;;;;;;5029978;28;20037;-80
2023/01/15 10:24:08;;;;;;;7.53;1.45;;;;;;;;;;5026789;28;20037;-79
2023/01/15 10:26:46;;;;;;;2.13;1.00;;;;;;;;;;5030446;28;20602;-79
2023/01/15 10:29:29;;;;;;;0.85;0.50;;;;;;;;;;5030145;28;20021;-79
2023/01/15 10:32:21;;;;;;;1.00;0.68;;;;;;;;;;5030759;28;20533;-80
2023/01/15 10:35:00;;;;;;;1.15;0.70;;;;;;;;;;5030906;28;20035;-81
2023/01/15 10:37:48;;;;;;;2.67;0.82;;;;;;;;;;5025250;28;20022;-80
2023/01/15 10:40:37;;;;;;;3.70;0.70;;;;;;;;;;5008990;28;20103;-78
2023/01/15 10:43:21;;;;;;;1.73;1.35;;;;;;;;;;5005010;28;20044;-81
2023/01/15 10:45:54;;;;;;;0.70;0.70;;;;;;;;;;5008825;28;20053;-81
2023/01/15 10:48:37;;;;;;;1.05;0.70;;;;;;;;;;5010606;28;20085;-79
2023/01/15 10:51:13;;;;;;;0.52;0.52;;;;;;;;;;5009261;28;20430;-80
2023/01/15 10:53:52;;;;;;;1.10;0.85;;;;;;;;;;5008758;28;20038;-78
2023/01/15 10:56:37;;;;;;;1.05;0.98;;;;;;;;;;5010053;28;20214;-79
2023/01/15 10:59:23;;;;;;;0.75;0.60;;;;;;;;;;5010870;28;20037;-80
2023/01/15 11:01:54;;;;;;;2.13;0.60;;;;;;;;;;5012588;28;20030;-79
2023/01/15 11:04:20;;;;;;;2.88;0.77;;;;;;;;;;5011810;28;20037;-80
2023/01/15 11:06:46;;;;;;;4.30;1.23;;;;;;;;;;5011196;28;20099;-79
2023/01/15 11:09:21;;;;;;;2.03;0.70;;;;;;;;;;5010371;28;20060;-80
2023/01/15 11:20:45;;;;;;;0.73;0.73;;;;;;;;;;5010547;28;20088;-80
2023/01/15 11:23:13;;;;;;;1.27;0.90;;;;;;;;;;5010572;28;20030;-80
2023/01/15 11:25:52;;;;;;;3.13;1.30;;;;;;;;;;5018584;28;20231;-80
2023/01/15 11:28:17;;;;;;;1.35;0.85;;;;;;;;;;5015808;28;20034;-80
2023/01/15 11:30:53;;;;;;;1.13;0.77;;;;;;;;;;5019344;28;20029;-81
2023/01/15 11:33:25;;;;;;;2.40;0.90;;;;;;;;;;5019319;28;20045;-81
2023/01/15 11:35:59;;;;;;;1.17;0.85;;;;;;;;;;5017780;28;20022;-81
2023/01/15 11:38:27;;;;;;;1.80;1.33;;;;;;;;;;5025159;28;20474;-80
2023/01/15 11:41:00;;;;;;;0.50;0.40;;;;;;;;;;5035078;28;20101;-81
2023/01/15 11:51:56;;;;;;;1.05;0.60;;;;;;;;;;5033584;28;20036;-80
2023/01/15 11:54:24;;;;;;;0.77;0.68;;;;;;;;;;5033026;28;20029;-80
2023/01/15 11:56:50;;;;;;;1.20;0.70;;;;;;;;;;5031933;28;20112;-81
2023/01/15 11:59:18;;;;;;;1.40;0.90;;;;;;;;;;5033665;28;20134;-81
2023/01/15 12:02:02;;;;;;;1.08;0.60;;;;;;;;;;5032252;28;20108;-80
2023/01/15 12:04:31;;;;;;;1.67;0.63;;;;;;;;;;5031902;28;20053;-81
2023/01/15 12:06:58;;;;;;;3.75;0.98;;;;;;;;;;5033376;28;20032;-80
2023/01/15 12:09:34;;;;;;;1.77;1.15;;;;;;;;;;5031812;28;20025;-81
2023/01/15 12:12:11;;;;;;;0.73;0.63;;;;;;;;;;5032503;28;20157;-82
2023/01/15 12:15:12;;;;;;;1.45;0.75;;;;;;;;;;5033118;28;20548;-82
2023/01/15 12:18:05;;;;;;;1.67;1.13;;;;;;;;;;5031434;28;20033;-82
2023/01/15 12:20:53;;;;;;;3.30;1.13;;;;;;;;;;5032514;28;20033;-81
2023/01/15 12:23:45;;;;;;;2.75;1.00;;;;;;;;;;5026417;28;20047;-81
2023/01/15 12:26:22;;;;;;;3.53;1.10;;;;;;;;;;5032044;28;20039;-79
2023/01/15 12:29:01;;;;;;;2.45;1.52;;;;;;;;;;5031516;28;20029;-79
2023/01/15 12:31:36;;;;;;;2.67;1.25;;;;;;;;;;5033167;28;20045;-80
2023/01/15 12:34:26;;;;;;;3.08;1.00;;;;;;;;;;5033967;28;20053;-81
2023/01/15 12:37:23;;;;;;;1.25;0.60;;;;;;;;;;5032490;28;20504;-81
2023/01/15 12:40:07;;;;;;;4.88;1.00;;;;;;;;;;5012248;28;20497;-81
2023/01/15 12:45:24;;;;;;;1.95;0.80;;;;;;;;;;5014758;28;20053;-78
2023/01/15 12:48:01;;;;;;;3.70;1.25;;;;;;;;;;5012396;28;20040;-81
2023/01/15 12:50:47;;;;;;;1.23;0.65;;;;;;;;;;5011270;28;20029;-79
2023/01/15 12:53:44;;;;;;;0.60;0.60;;;;;;;;;;5012327;28;20160;-79
2023/01/15 12:56:31;;;;;;;1.02;0.63;;;;;;;;;;5010863;28;20030;-81
2023/01/15 12:59:12;;;;;;;2.28;0.95;;;;;;;;;;5011064;28;20037;-81
2023/01/15 13:02:01;;;;;;;1.55;0.88;;;;;;;;;;5012214;28;20030;-81
2023/01/15 13:05:18;;;;;;;1.98;0.70;;;;;;;;;;5011352;28;20396;-80
2023/01/15 13:07:57;;;;;;;0.77;0.50;;;;;;;;;;5001867;28;20033;-81
2023/01/15 13:10:26;;;;;;;2.85;0.60;;;;;;;;;;5010939;28;20033;-80
2023/01/15 13:13:00;;;;;;;0.68;0.40;;;;;;;;;;5010611;28;20647;-80
2023/01/15 13:15:32;;;;;;;0.93;0.68;;;;;;;;;;5012832;28;20024;-81
2023/01/15 13:18:03;;;;;;;1.92;0.60;;;;;;;;;;5021187;28;20022;-81
2023/01/15 13:20:54;;;;;;;2.38;1.00;;;;;;;;;;5018337;28;20026;-81
2023/01/15 13:23:43;;;;;;;0.98;0.50;;;;;;;;;;5011553;28;20037;-80
2023/01/15 13:26:08;;;;;;;0.93;0.40;;;;;;;;;;5010634;28;20025;-80
2023/01/15 13:28:43;;;;;;;1.27;0.55;;;;;;;;;;5010099;28;20701;-80
2023/01/15 13:31:41;;;;;;;0.88;0.50;;;;;;;;;;5010475;28;20557;-79
2023/01/15 13:34:29;;;;;;;2.60;0.90;;;;;;;;;;5011758;28;20101;-80
2023/01/15 13:37:17;;;;;;;0.80;0.60;;;;;;;;;;5010458;28;20117;-80
2023/01/15 13:39:45;;;;;;;1.33;0.88;;;;;;;;;;5002560;28;20037;-80
2023/01/15 13:42:31;;;;;;;1.70;0.70;;;;;;;;;;5010377;28;20378;-80
2023/01/15 13:45:07;;;;;;;2.15;0.47;;;;;;;;;;5009888;28;20050;-80
2023/01/15 13:47:36;;;;;;;2.08;0.68;;;;;;;;;;5009926;28;20033;-82
2023/01/15 13:50:14;;;;;;;1.17;0.75;;;;;;;;;;5011410;28;20025;-81
2023/01/15 13:52:40;;;;;;;1.95;0.80;;;;;;;;;;5012084;28;20036;-81
2023/01/15 13:55:14;;;;;;;2.70;0.98;;;;;;;;;;5011013;28;20026;-82
2023/01/15 13:57:41;;;;;;;1.90;1.10;;;;;;;;;;5011403;28;20037;-81
2023/01/15 14:00:25;;;;;;;4.20;1.17;;;;;;;;;;5010317;28;20570;-80
2023/01/15 14:02:56;;;;;;;1.60;0.88;;;;;;;;;;5011620;28;20100;-80
2023/01/15 14:05:22;;;;;;;2.10;1.05;;;;;;;;;;5011132;28;20045;-82
2023/01/15 14:07:47;;;;;;;1.67;0.90;;;;;;;;;;5010788;28;20021;-80
2023/01/15 14:10:20;;;;;;;1.50;0.88;;;;;;;;;;5011165;28;20450;-78
2023/01/15 14:13:07;;;;;;;3.05;0.60;;;;;;;;;;5009100;28;20077;-78
2023/01/15 14:16:00;;;;;;;0.45;0.45;;;;;;;;;;5010854;28;20049;-79
2023/01/15 14:19:11;;;;;;;1.05;0.50;;;;;;;;;;5010844;28;20041;-78
2023/01/15 14:21:49;;;;;;;0.32;0.32;;;;;;;;;;5010978;28;20089;-78
2023/01/15 14:24:45;;;;;;;0.75;0.60;;;;;;;;;;5011425;28;20033;-79
2023/01/15 14:27:17;;;;;;;0.57;0.50;;;;;;;;;;5009108;28;20076;-79
2023/01/15 14:30:05;;;;;;;2.13;0.73;;;;;;;;;;5008531;28;20044;-78
2023/01/15 14:32:39;;;;;;;0.70;0.60;;;;;;;;;;5008458;28;20359;-79
2023/01/15 14:35:13;;;;;;;0.70;0.70;;;;;;;;;;5008778;28;20036;-78
2023/01/15 14:37:52;;;;;;;1.13;0.60;;;;;;;;;;5010765;28;20434;-78
2023/01/15 14:40:23;;;;;;;0.70;0.70;;;;;;;;;;5009395;28;20069;-79
2023/01/15 14:43:03;;;;;;;1.23;0.70;;;;;;;;;;5009351;28;20129;-78
2023/01/15 14:45:37;;;;;;;1.52;0.60;;;;;;;;;;5010334;28;20037;-80
2023/01/15 14:48:22;;;;;;;1.88;0.80;;;;;;;;;;5008763;28;20033;-80
2023/01/15 14:50:48;;;;;;;1.60;0.65;;;;;;;;;;5010295;28;20116;-78
2023/01/15 14:53:32;;;;;;;2.30;1.33;;;;;;;;;;5012156;28;20064;-79
2023/01/15 14:56:07;;;;;;;1.30;0.80;;;;;;;;;;5009556;28;20095;-80
2023/01/15 14:59:11;;;;;;;1.93;0.97;;;;;;;;;;5010056;28;20102;-79
2023/01/15 15:01:50;;;;;;;1.50;0.55;;;;;;;;;;5004048;28;20097;-80
2023/01/15 15:04:22;;;;;;;1.57;1.00;;;;;;;;;;5008456;28;20467;-80
2023/01/15 15:06:57;;;;;;;2.83;1.10;;;;;;;;;;5008928;28;20041;-80
2023/01/15 15:09:42;;;;;;;7.05;1.65;;;;;;;;;;5009115;28;20026;-79
2023/01/15 15:12:41;;;;;;;2.50;1.05;;;;;;;;;;5012457;28;20053;-77
2023/01/15 15:15:28;;;;;;;3.97;1.35;;;;;;;;;;5009604;28;20064;-80
2023/01/15 15:17:56;;;;;;;5.03;1.15;;;;;;;;;;5009451;28;20153;-78
2023/01/15 15:20:40;;;;;;;7.20;1.20;;;;;;;;;;5012335;28;20064;-79
2023/01/15 15:23:15;;;;;;;1.27;0.90;;;;;;;;;;5010866;28;20442;-79
2023/01/15 15:25:42;;;;;;;1.92;0.80;;;;;;;;;;5008640;28;20620;-79
2023/01/15 15:28:11;;;;;;;2.72;0.55;;;;;;;;;;5008816;28;20025;-80
2023/01/15 15:30:43;;;;;;;1.17;0.40;;;;;;;;;;5009856;28;20416;-79
2023/01/15 15:33:16;;;;;;;1.38;0.70;;;;;;;;;;5008523;28;20025;-78
2023/01/15 15:35:45;;;;;;;0.65;0.40;;;;;;;;;;5008305;28;20026;-78
2023/01/15 15:38:16;;;;;;;1.98;0.65;;;;;;;;;;5017799;28;20536;-78
2023/01/15 15:40:47;;;;;;;2.10;0.70;;;;;;;;;;5029453;28;20052;-78
2023/01/15 15:48:55;;;;;;;0.90;0.60;;;;;;;;;;5029663;28;20060;-80
2023/01/15 15:51:35;;;;;;;0.77;0.37;;;;;;;;;;5029586;28;20025;-81
2023/01/15 15:54:25;;;;;;;0.68;0.43;;;;;;;;;;5030441;28;20063;-81
2023/01/15 15:57:15;;;;;;;0.50;0.40;;;;;;;;;;5029015;28;20036;-80
2023/01/15 15:59:49;;;;;;;1.10;0.50;;;;;;;;;;5029392;28;20037;-81
2023/01/15 16:02:35;;;;;;;1.67;0.77;;;;;;;;;;5031471;28;20136;-80
2023/01/15 16:05:20;;;;;;;1.17;0.73;;;;;;;;;;5032189;28;20044;-82